SBW241 BGSF-CYDF
Flight info
| Callsign | SBW241 |
|---|---|
| Flight time | 2h 45m |
| Altitude | 36000 |
| Route | BAVKO1A BAVKO DCT MS DCT ENNSO/N0434F360 DCT HOIST DCT IRLOK DCT JANJO DCT YAY/N0337F160 V381 YDF |
| Aircraft | A320/M-SDE3FGHIRWY/LB1 |
Departure
| Time | 2026-04-19 06:35 |
|---|---|
| Airport | Kangerlussuaq International Airport (BGSF) |
Arrival
| Time | 2026-04-19 09:20 |
|---|---|
| Airport | Deer Lake Airport (CYDF) |
| Time | Latitude | Longitude | Altitude | Speed | Heading |
|---|---|---|---|---|---|
| 2026-04-19 05:33 | 67.00789 | -50.71109 | 176 ft | 0 kts | 153° |
| 2026-04-19 06:09 | 67.00798 | -50.71121 | 175 ft | 4 kts | 171° |
| 2026-04-19 06:09 | 67.00800 | -50.71123 | 175 ft | 4 kts | 180° |
| 2026-04-19 06:10 | 67.00806 | -50.71126 | 175 ft | 4 kts | 235° |
| 2026-04-19 06:10 | 67.00816 | -50.71073 | 176 ft | 1 kts | 239° |
| 2026-04-19 06:11 | 67.00816 | -50.71072 | 176 ft | 0 kts | 239° |
| 2026-04-19 06:27 | 67.00572 | -50.74229 | 144 ft | 0 kts | 62° |
| 2026-04-19 06:28 | 67.00867 | -50.71176 | 176 ft | 1 kts | 154° |
| 2026-04-19 06:29 | 67.00845 | -50.71169 | 175 ft | 12 kts | 187° |
| 2026-04-19 06:29 | 67.00787 | -50.71426 | 172 ft | 20 kts | 243° |
| 2026-04-19 06:29 | 67.00722 | -50.71808 | 168 ft | 23 kts | 277° |
| 2026-04-19 06:29 | 67.00805 | -50.71932 | 168 ft | 14 kts | 334° |
| 2026-04-19 06:30 | 67.00910 | -50.72080 | 168 ft | 20 kts | 331° |
| 2026-04-19 06:30 | 67.00941 | -50.72123 | 168 ft | 5 kts | 332° |
| 2026-04-19 06:30 | 67.00958 | -50.72146 | 168 ft | 0 kts | 332° |
| 2026-04-19 06:31 | 67.00968 | -50.72180 | 168 ft | 5 kts | 281° |
| 2026-04-19 06:31 | 67.00974 | -50.72365 | 165 ft | 15 kts | 262° |
| 2026-04-19 06:31 | 67.00909 | -50.72629 | 163 ft | 20 kts | 243° |
| 2026-04-19 06:31 | 67.00832 | -50.73008 | 160 ft | 28 kts | 244° |
| 2026-04-19 06:32 | 67.00723 | -50.73524 | 150 ft | 37 kts | 240° |
| 2026-04-19 06:32 | 67.00628 | -50.73992 | 147 ft | 27 kts | 250° |
| 2026-04-19 06:32 | 67.00602 | -50.74162 | 145 ft | 2 kts | 148° |
| 2026-04-19 06:32 | 67.00603 | -50.74080 | 147 ft | 7 kts | 66° |
| 2026-04-19 06:33 | 67.00607 | -50.74067 | 147 ft | 0 kts | 61° |
| 2026-04-19 06:34 | 67.00678 | -50.73737 | 149 ft | 59 kts | 61° |
| 2026-04-19 06:34 | 67.00967 | -50.72358 | 166 ft | 113 kts | 62° |
| 2026-04-19 06:34 | 67.01397 | -50.70313 | 330 ft | 139 kts | 62° |
| 2026-04-19 06:34 | 67.01848 | -50.68054 | 738 ft | 145 kts | 66° |
| 2026-04-19 06:35 | 67.02092 | -50.65578 | 1206 ft | 145 kts | 77° |
| 2026-04-19 06:35 | 67.02298 | -50.62942 | 1610 ft | 161 kts | 78° |
| 2026-04-19 06:35 | 67.02535 | -50.59929 | 1976 ft | 185 kts | 78° |
| 2026-04-19 06:35 | 67.02803 | -50.56496 | 2403 ft | 208 kts | 79° |
| 2026-04-19 06:36 | 67.02809 | -50.52594 | 2538 ft | 235 kts | 109° |
| 2026-04-19 06:36 | 67.01810 | -50.49189 | 2540 ft | 247 kts | 148° |
| 2026-04-19 06:36 | 67.00172 | -50.48096 | 2631 ft | 253 kts | 188° |
| 2026-04-19 06:36 | 66.98596 | -50.50046 | 3509 ft | 257 kts | 224° |
| 2026-04-19 06:37 | 66.97488 | -50.53656 | 4551 ft | 259 kts | 235° |
| 2026-04-19 06:37 | 66.96492 | -50.57502 | 5506 ft | 261 kts | 234° |
| 2026-04-19 06:37 | 66.95489 | -50.61377 | 6438 ft | 263 kts | 234° |
| 2026-04-19 06:37 | 66.94474 | -50.65301 | 7251 ft | 267 kts | 234° |
| 2026-04-19 06:38 | 66.93411 | -50.69239 | 7832 ft | 271 kts | 229° |
| 2026-04-19 06:38 | 66.92173 | -50.72860 | 7890 ft | 270 kts | 224° |
| 2026-04-19 06:38 | 66.90849 | -50.76237 | 7890 ft | 269 kts | 221° |
| 2026-04-19 06:38 | 66.89498 | -50.79539 | 7980 ft | 271 kts | 221° |
| 2026-04-19 06:39 | 66.88127 | -50.82875 | 8896 ft | 273 kts | 221° |
| 2026-04-19 06:39 | 66.86775 | -50.86208 | 9812 ft | 276 kts | 221° |
| 2026-04-19 06:39 | 66.85377 | -50.89693 | 10316 ft | 292 kts | 222° |
| 2026-04-19 06:39 | 66.83869 | -50.93480 | 10599 ft | 314 kts | 223° |
| 2026-04-19 06:40 | 66.82305 | -50.97440 | 11240 ft | 321 kts | 223° |
| 2026-04-19 06:40 | 66.80698 | -51.01536 | 12065 ft | 325 kts | 223° |
| 2026-04-19 06:40 | 66.79095 | -51.05617 | 12900 ft | 328 kts | 224° |
| 2026-04-19 06:40 | 66.77491 | -51.09697 | 13652 ft | 333 kts | 224° |
| 2026-04-19 06:41 | 66.75847 | -51.13868 | 14385 ft | 337 kts | 224° |
| 2026-04-19 06:41 | 66.74176 | -51.18086 | 15097 ft | 340 kts | 224° |
| 2026-04-19 06:41 | 66.72492 | -51.22323 | 15818 ft | 343 kts | 224° |
| 2026-04-19 06:41 | 66.70788 | -51.26586 | 16532 ft | 346 kts | 224° |
| 2026-04-19 06:42 | 66.69067 | -51.30894 | 17238 ft | 349 kts | 224° |
| 2026-04-19 06:42 | 66.67328 | -51.35228 | 17944 ft | 353 kts | 224° |
| 2026-04-19 06:42 | 66.65574 | -51.39595 | 18592 ft | 356 kts | 224° |
| 2026-04-19 06:42 | 66.63801 | -51.43992 | 19250 ft | 359 kts | 224° |
| 2026-04-19 06:43 | 66.61969 | -51.48285 | 19937 ft | 361 kts | 222° |
| 2026-04-19 06:43 | 66.60081 | -51.52485 | 20631 ft | 364 kts | 221° |
| 2026-04-19 06:43 | 66.58151 | -51.56665 | 21329 ft | 367 kts | 221° |
| 2026-04-19 06:43 | 66.56204 | -51.60850 | 22022 ft | 370 kts | 221° |
| 2026-04-19 06:44 | 66.54270 | -51.65016 | 22680 ft | 373 kts | 222° |
| 2026-04-19 06:44 | 66.52298 | -51.69289 | 23350 ft | 376 kts | 222° |
| 2026-04-19 06:44 | 66.50311 | -51.73612 | 23891 ft | 379 kts | 223° |
| 2026-04-19 06:44 | 66.48311 | -51.77975 | 24412 ft | 383 kts | 223° |
| 2026-04-19 06:45 | 66.46242 | -51.82265 | 24916 ft | 388 kts | 218° |
| 2026-04-19 06:45 | 66.43918 | -51.85796 | 25399 ft | 395 kts | 209° |
| 2026-04-19 06:45 | 66.41383 | -51.88628 | 25878 ft | 400 kts | 207° |
| 2026-04-19 06:45 | 66.38814 | -51.91416 | 26347 ft | 404 kts | 207° |
| 2026-04-19 06:46 | 66.36216 | -51.94214 | 26803 ft | 409 kts | 207° |
| 2026-04-19 06:46 | 66.33597 | -51.97025 | 27251 ft | 413 kts | 207° |
| 2026-04-19 06:46 | 66.30947 | -51.99868 | 27692 ft | 417 kts | 207° |
| 2026-04-19 06:46 | 66.28272 | -52.02743 | 28143 ft | 420 kts | 208° |
| 2026-04-19 06:47 | 66.25572 | -52.05652 | 28527 ft | 425 kts | 210° |
| 2026-04-19 06:47 | 66.22847 | -52.08591 | 28854 ft | 430 kts | 211° |
| 2026-04-19 06:47 | 66.20084 | -52.11565 | 29236 ft | 434 kts | 211° |
| 2026-04-19 06:47 | 66.17330 | -52.14507 | 29630 ft | 438 kts | 211° |
| 2026-04-19 06:48 | 66.14516 | -52.17500 | 29991 ft | 441 kts | 211° |
| 2026-04-19 06:48 | 66.11682 | -52.20506 | 30319 ft | 444 kts | 210° |
| 2026-04-19 06:48 | 66.08848 | -52.23496 | 30760 ft | 442 kts | 210° |
| 2026-04-19 06:48 | 66.06022 | -52.26465 | 31250 ft | 441 kts | 209° |
| 2026-04-19 06:49 | 66.03201 | -52.29419 | 31758 ft | 439 kts | 209° |
| 2026-04-19 06:49 | 66.01343 | -52.31367 | 32085 ft | 438 kts | 209° |
| 2026-04-19 06:49 | 65.98542 | -52.34303 | 32576 ft | 437 kts | 208° |
| 2026-04-19 06:49 | 65.95753 | -52.37222 | 33063 ft | 435 kts | 208° |
| 2026-04-19 06:50 | 65.92969 | -52.40135 | 33502 ft | 434 kts | 209° |
| 2026-04-19 06:50 | 65.90190 | -52.43035 | 33917 ft | 433 kts | 209° |
| 2026-04-19 06:50 | 65.87415 | -52.45918 | 34294 ft | 432 kts | 208° |
| 2026-04-19 06:50 | 65.84645 | -52.48787 | 34657 ft | 431 kts | 208° |
| 2026-04-19 06:51 | 65.81886 | -52.51646 | 35013 ft | 430 kts | 208° |
| 2026-04-19 06:51 | 65.79135 | -52.54491 | 35376 ft | 430 kts | 208° |
| 2026-04-19 06:51 | 65.76374 | -52.57343 | 35737 ft | 430 kts | 208° |
| 2026-04-19 06:51 | 65.73615 | -52.60181 | 35848 ft | 431 kts | 207° |
| 2026-04-19 06:52 | 65.68098 | -52.65823 | 35869 ft | 433 kts | 207° |
| 2026-04-19 06:52 | 65.62525 | -52.71491 | 35874 ft | 434 kts | 208° |
| 2026-04-19 06:53 | 65.56943 | -52.77145 | 35868 ft | 435 kts | 208° |
| 2026-04-19 06:53 | 65.51354 | -52.82790 | 35866 ft | 435 kts | 208° |
| 2026-04-19 06:54 | 65.45757 | -52.88412 | 35867 ft | 436 kts | 208° |
| 2026-04-19 06:54 | 65.40086 | -52.93627 | 35871 ft | 441 kts | 200° |
| 2026-04-19 06:55 | 65.34072 | -52.97037 | 35879 ft | 443 kts | 199° |
| 2026-04-19 06:55 | 65.28100 | -53.00390 | 35851 ft | 444 kts | 200° |
| 2026-04-19 06:56 | 65.22073 | -53.03761 | 35855 ft | 444 kts | 200° |
| 2026-04-19 06:56 | 65.16045 | -53.07116 | 35861 ft | 445 kts | 200° |
| 2026-04-19 06:57 | 65.10007 | -53.10466 | 35876 ft | 445 kts | 200° |
| 2026-04-19 06:57 | 65.03975 | -53.13784 | 35881 ft | 445 kts | 199° |
| 2026-04-19 06:58 | 64.97938 | -53.17093 | 35852 ft | 445 kts | 200° |
| 2026-04-19 06:58 | 64.91942 | -53.20362 | 35838 ft | 445 kts | 200° |
| 2026-04-19 06:59 | 64.85897 | -53.23664 | 35853 ft | 446 kts | 200° |
| 2026-04-19 06:59 | 64.79849 | -53.26971 | 35874 ft | 446 kts | 200° |
| 2026-04-19 07:00 | 64.73801 | -53.30241 | 35881 ft | 446 kts | 200° |
| 2026-04-19 07:00 | 64.67741 | -53.33464 | 35888 ft | 446 kts | 200° |
| 2026-04-19 07:01 | 64.61681 | -53.36698 | 35865 ft | 446 kts | 200° |
| 2026-04-19 07:01 | 64.55638 | -53.39924 | 35893 ft | 445 kts | 200° |
| 2026-04-19 07:02 | 64.49629 | -53.43102 | 35889 ft | 445 kts | 200° |
| 2026-04-19 07:02 | 64.43593 | -53.46275 | 35896 ft | 444 kts | 200° |
| 2026-04-19 07:03 | 64.37565 | -53.49453 | 35891 ft | 444 kts | 200° |
| 2026-04-19 07:03 | 64.31544 | -53.52621 | 35853 ft | 444 kts | 201° |
| 2026-04-19 07:04 | 64.25518 | -53.55756 | 35876 ft | 443 kts | 201° |
| 2026-04-19 07:04 | 64.19499 | -53.58867 | 35856 ft | 443 kts | 201° |
| 2026-04-19 07:05 | 64.13468 | -53.61980 | 35867 ft | 444 kts | 201° |
| 2026-04-19 07:05 | 64.07429 | -53.65074 | 35863 ft | 445 kts | 200° |
| 2026-04-19 07:06 | 64.01387 | -53.68154 | 35874 ft | 445 kts | 200° |
| 2026-04-19 07:06 | 63.95344 | -53.71231 | 35853 ft | 445 kts | 201° |
| 2026-04-19 07:07 | 63.89305 | -53.74288 | 35877 ft | 444 kts | 201° |
| 2026-04-19 07:07 | 63.83273 | -53.77329 | 35885 ft | 444 kts | 201° |
| 2026-04-19 07:08 | 63.77282 | -53.80343 | 35885 ft | 444 kts | 201° |
| 2026-04-19 07:08 | 63.71259 | -53.83355 | 35885 ft | 444 kts | 201° |
| 2026-04-19 07:09 | 63.65235 | -53.86352 | 35890 ft | 443 kts | 201° |
| 2026-04-19 07:09 | 63.59211 | -53.89350 | 35863 ft | 443 kts | 202° |
| 2026-04-19 07:10 | 63.53188 | -53.92315 | 35874 ft | 443 kts | 202° |
| 2026-04-19 07:10 | 63.47166 | -53.95270 | 35849 ft | 444 kts | 202° |
| 2026-04-19 07:11 | 63.41123 | -53.98207 | 35854 ft | 445 kts | 201° |
| 2026-04-19 07:11 | 63.35070 | -54.01163 | 35860 ft | 445 kts | 202° |
| 2026-04-19 07:12 | 63.29014 | -54.04126 | 35865 ft | 446 kts | 201° |
| 2026-04-19 07:12 | 63.22941 | -54.07049 | 35873 ft | 447 kts | 201° |
| 2026-04-19 07:13 | 63.16873 | -54.09956 | 35877 ft | 447 kts | 201° |
| 2026-04-19 07:13 | 63.10797 | -54.12865 | 35887 ft | 447 kts | 201° |
| 2026-04-19 07:14 | 63.04718 | -54.15761 | 35887 ft | 447 kts | 201° |
| 2026-04-19 07:14 | 62.98640 | -54.18665 | 35856 ft | 447 kts | 202° |
| 2026-04-19 07:15 | 62.92562 | -54.21540 | 35877 ft | 447 kts | 202° |
| 2026-04-19 07:16 | 62.83447 | -54.25803 | 35895 ft | 446 kts | 202° |
| 2026-04-19 07:16 | 62.77376 | -54.28656 | 35876 ft | 447 kts | 202° |
| 2026-04-19 07:17 | 62.71297 | -54.31502 | 35877 ft | 447 kts | 202° |
| 2026-04-19 07:17 | 62.65201 | -54.34328 | 35836 ft | 448 kts | 202° |
| 2026-04-19 07:18 | 62.59111 | -54.37107 | 35870 ft | 447 kts | 202° |
| 2026-04-19 07:18 | 62.53028 | -54.39898 | 35884 ft | 446 kts | 202° |
| 2026-04-19 07:19 | 62.46959 | -54.42705 | 35887 ft | 446 kts | 202° |
| 2026-04-19 07:19 | 62.40922 | -54.45455 | 35895 ft | 446 kts | 202° |
| 2026-04-19 07:20 | 62.34812 | -54.48215 | 35897 ft | 446 kts | 202° |
| 2026-04-19 07:20 | 62.28746 | -54.50954 | 35889 ft | 445 kts | 202° |
| 2026-04-19 07:21 | 62.22729 | -54.53672 | 35904 ft | 444 kts | 202° |
| 2026-04-19 07:21 | 62.16696 | -54.56392 | 35910 ft | 443 kts | 202° |
| 2026-04-19 07:22 | 62.10651 | -54.59085 | 35886 ft | 443 kts | 202° |
| 2026-04-19 07:22 | 62.04611 | -54.61785 | 35877 ft | 444 kts | 202° |
| 2026-04-19 07:23 | 61.98551 | -54.64489 | 35853 ft | 444 kts | 203° |
| 2026-04-19 07:23 | 61.92486 | -54.67157 | 35890 ft | 444 kts | 202° |
| 2026-04-19 07:24 | 61.86439 | -54.69796 | 35898 ft | 444 kts | 202° |
| 2026-04-19 07:24 | 61.80390 | -54.72439 | 35903 ft | 443 kts | 202° |
| 2026-04-19 07:25 | 61.74384 | -54.75059 | 35909 ft | 443 kts | 202° |
| 2026-04-19 07:25 | 61.68304 | -54.77708 | 35864 ft | 443 kts | 203° |
| 2026-04-19 07:26 | 61.62309 | -54.80299 | 35893 ft | 442 kts | 203° |
| 2026-04-19 07:26 | 61.56277 | -54.82896 | 35904 ft | 442 kts | 203° |
| 2026-04-19 07:27 | 61.50254 | -54.85486 | 35909 ft | 442 kts | 203° |
| 2026-04-19 07:27 | 61.46084 | -54.87267 | 35909 ft | 441 kts | 203° |
| 2026-04-19 07:28 | 61.40065 | -54.89840 | 35890 ft | 441 kts | 203° |
| 2026-04-19 07:28 | 61.34046 | -54.92405 | 35859 ft | 441 kts | 204° |
| 2026-04-19 07:29 | 61.28030 | -54.94944 | 35883 ft | 441 kts | 203° |
| 2026-04-19 07:29 | 61.22007 | -54.97476 | 35896 ft | 441 kts | 204° |
| 2026-04-19 07:30 | 61.15991 | -55.00011 | 35900 ft | 441 kts | 204° |
| 2026-04-19 07:30 | 61.10019 | -55.02495 | 35902 ft | 441 kts | 203° |
| 2026-04-19 07:31 | 61.04007 | -55.05000 | 35864 ft | 440 kts | 203° |
| 2026-04-19 07:31 | 60.98005 | -55.07493 | 35904 ft | 439 kts | 203° |
| 2026-04-19 07:32 | 60.92027 | -55.09959 | 35911 ft | 438 kts | 203° |
| 2026-04-19 07:33 | 60.80126 | -55.14860 | 35912 ft | 437 kts | 203° |
| 2026-04-19 07:33 | 60.74163 | -55.17299 | 35908 ft | 437 kts | 203° |
| 2026-04-19 07:34 | 60.68206 | -55.19719 | 35861 ft | 436 kts | 203° |
| 2026-04-19 07:34 | 60.63262 | -55.21707 | 35877 ft | 436 kts | 203° |
| 2026-04-19 07:35 | 60.57307 | -55.24102 | 35889 ft | 436 kts | 204° |
| 2026-04-19 07:35 | 60.50388 | -55.26910 | 35892 ft | 435 kts | 204° |
| 2026-04-19 07:36 | 60.45408 | -55.28910 | 35885 ft | 436 kts | 203° |
| 2026-04-19 07:36 | 60.39459 | -55.31283 | 35862 ft | 435 kts | 204° |
| 2026-04-19 07:37 | 60.33537 | -55.33649 | 35902 ft | 433 kts | 204° |
| 2026-04-19 07:37 | 60.27664 | -55.35983 | 35909 ft | 432 kts | 204° |
| 2026-04-19 07:38 | 60.21769 | -55.38306 | 35903 ft | 431 kts | 204° |
| 2026-04-19 07:38 | 60.15883 | -55.40625 | 35907 ft | 431 kts | 204° |
| 2026-04-19 07:39 | 60.10003 | -55.42932 | 35907 ft | 431 kts | 204° |
| 2026-04-19 07:39 | 60.04119 | -55.45228 | 35879 ft | 431 kts | 204° |
| 2026-04-19 07:40 | 59.98221 | -55.47542 | 35872 ft | 433 kts | 204° |
| 2026-04-19 07:40 | 59.92302 | -55.49846 | 35875 ft | 434 kts | 204° |
| 2026-04-19 07:41 | 59.86359 | -55.52127 | 35874 ft | 434 kts | 204° |
| 2026-04-19 07:41 | 59.80422 | -55.54407 | 35880 ft | 435 kts | 204° |
| 2026-04-19 07:42 | 59.74477 | -55.56682 | 35878 ft | 434 kts | 204° |
| 2026-04-19 07:42 | 59.68603 | -55.58944 | 35897 ft | 433 kts | 204° |
| 2026-04-19 07:43 | 59.62694 | -55.61216 | 35905 ft | 432 kts | 204° |
| 2026-04-19 07:43 | 59.56791 | -55.63450 | 35907 ft | 432 kts | 204° |
| 2026-04-19 07:44 | 59.50901 | -55.65678 | 35902 ft | 431 kts | 204° |
| 2026-04-19 07:44 | 59.45005 | -55.67897 | 35888 ft | 430 kts | 204° |
| 2026-04-19 07:45 | 59.39140 | -55.70092 | 35901 ft | 429 kts | 204° |
| 2026-04-19 07:45 | 59.33297 | -55.72277 | 35886 ft | 430 kts | 205° |
| 2026-04-19 07:46 | 59.27397 | -55.74494 | 35879 ft | 430 kts | 205° |
| 2026-04-19 07:46 | 59.21504 | -55.76690 | 35882 ft | 431 kts | 204° |
| 2026-04-19 07:47 | 59.15606 | -55.78869 | 35850 ft | 431 kts | 205° |
| 2026-04-19 07:47 | 59.09717 | -55.81035 | 35885 ft | 430 kts | 205° |
| 2026-04-19 07:48 | 59.03841 | -55.83200 | 35875 ft | 429 kts | 205° |
| 2026-04-19 07:48 | 58.97969 | -55.85357 | 35880 ft | 429 kts | 205° |
| 2026-04-19 07:49 | 58.92106 | -55.87504 | 35872 ft | 429 kts | 205° |
| 2026-04-19 07:49 | 58.86233 | -55.89643 | 35846 ft | 429 kts | 205° |
| 2026-04-19 07:50 | 58.80430 | -55.91727 | 35839 ft | 423 kts | 205° |
| 2026-04-19 07:50 | 58.74643 | -55.93828 | 35851 ft | 424 kts | 205° |
| 2026-04-19 07:51 | 58.68846 | -55.95931 | 35854 ft | 424 kts | 205° |
| 2026-04-19 07:51 | 58.63042 | -55.98026 | 35861 ft | 424 kts | 205° |
| 2026-04-19 07:52 | 58.57238 | -56.00101 | 35875 ft | 424 kts | 205° |
| 2026-04-19 07:52 | 58.51448 | -56.02162 | 35875 ft | 422 kts | 205° |
| 2026-04-19 07:53 | 58.45688 | -56.04195 | 35882 ft | 420 kts | 205° |
| 2026-04-19 07:53 | 58.39949 | -56.06227 | 35874 ft | 419 kts | 205° |
| 2026-04-19 07:54 | 58.34229 | -56.08255 | 35881 ft | 418 kts | 205° |
| 2026-04-19 07:54 | 58.28513 | -56.10274 | 35872 ft | 418 kts | 205° |
| 2026-04-19 07:55 | 58.22810 | -56.12277 | 35858 ft | 416 kts | 205° |
| 2026-04-19 07:55 | 58.17127 | -56.14265 | 35865 ft | 414 kts | 205° |
| 2026-04-19 07:56 | 58.11466 | -56.16231 | 35869 ft | 413 kts | 205° |
| 2026-04-19 07:56 | 58.05817 | -56.18183 | 35861 ft | 413 kts | 205° |
| 2026-04-19 07:57 | 58.00143 | -56.20154 | 35847 ft | 414 kts | 205° |
| 2026-04-19 07:57 | 57.94468 | -56.22126 | 35818 ft | 415 kts | 205° |
| 2026-04-19 07:58 | 57.88813 | -56.24076 | 35838 ft | 416 kts | 205° |
| 2026-04-19 07:58 | 57.88093 | -56.24322 | 35837 ft | 416 kts | 205° |
| 2026-04-19 07:59 | 57.86342 | -56.24920 | 35840 ft | 416 kts | 205° |
| 2026-04-19 08:00 | 57.80651 | -56.26869 | 35839 ft | 416 kts | 205° |
| 2026-04-19 08:00 | 57.74956 | -56.28815 | 35844 ft | 415 kts | 205° |
| 2026-04-19 08:01 | 57.69275 | -56.30748 | 35836 ft | 415 kts | 205° |
| 2026-04-19 08:01 | 57.63593 | -56.32674 | 35794 ft | 415 kts | 204° |
| 2026-04-19 08:02 | 57.57907 | -56.34605 | 35802 ft | 415 kts | 204° |
| 2026-04-19 08:02 | 57.52222 | -56.36523 | 35823 ft | 415 kts | 204° |
| 2026-04-19 08:03 | 57.46536 | -56.38435 | 35823 ft | 415 kts | 204° |
| 2026-04-19 08:03 | 57.40839 | -56.40350 | 35817 ft | 417 kts | 205° |
| 2026-04-19 08:04 | 57.35111 | -56.42260 | 35773 ft | 419 kts | 204° |
| 2026-04-19 08:04 | 57.29350 | -56.44174 | 35820 ft | 421 kts | 204° |
| 2026-04-19 08:05 | 57.23585 | -56.46081 | 35833 ft | 421 kts | 204° |
| 2026-04-19 08:05 | 57.17823 | -56.47982 | 35840 ft | 421 kts | 204° |
| 2026-04-19 08:06 | 57.12064 | -56.49902 | 35830 ft | 421 kts | 204° |
| 2026-04-19 08:06 | 57.06301 | -56.51805 | 35846 ft | 421 kts | 204° |
| 2026-04-19 08:07 | 57.00536 | -56.53692 | 35843 ft | 421 kts | 204° |
| 2026-04-19 08:07 | 56.94776 | -56.55582 | 35844 ft | 421 kts | 204° |
| 2026-04-19 08:08 | 56.89010 | -56.57459 | 35835 ft | 421 kts | 204° |
| 2026-04-19 08:08 | 56.83243 | -56.59314 | 35842 ft | 421 kts | 204° |
| 2026-04-19 08:09 | 56.77465 | -56.61183 | 35784 ft | 422 kts | 204° |
| 2026-04-19 08:09 | 56.71673 | -56.63062 | 35793 ft | 424 kts | 204° |
| 2026-04-19 08:10 | 56.65860 | -56.64933 | 35802 ft | 425 kts | 203° |
| 2026-04-19 08:10 | 56.60039 | -56.66799 | 35813 ft | 425 kts | 203° |
| 2026-04-19 08:11 | 56.54205 | -56.68658 | 35827 ft | 425 kts | 203° |
| 2026-04-19 08:11 | 56.48374 | -56.70517 | 35790 ft | 426 kts | 203° |
| 2026-04-19 08:12 | 56.42531 | -56.72368 | 35802 ft | 426 kts | 202° |
| 2026-04-19 08:12 | 56.36698 | -56.74216 | 35819 ft | 426 kts | 202° |
| 2026-04-19 08:13 | 56.30856 | -56.76056 | 35840 ft | 426 kts | 202° |
| 2026-04-19 08:13 | 56.25012 | -56.77901 | 35847 ft | 426 kts | 202° |
| 2026-04-19 08:14 | 56.19166 | -56.79732 | 35807 ft | 427 kts | 202° |
| 2026-04-19 08:14 | 56.10369 | -56.82481 | 35816 ft | 429 kts | 202° |
| 2026-04-19 08:15 | 56.04487 | -56.84326 | 35826 ft | 430 kts | 202° |
| 2026-04-19 08:15 | 55.98593 | -56.86147 | 35835 ft | 430 kts | 202° |
| 2026-04-19 08:16 | 55.92688 | -56.87967 | 35837 ft | 430 kts | 202° |
| 2026-04-19 08:16 | 55.86781 | -56.89788 | 35819 ft | 430 kts | 202° |
| 2026-04-19 08:17 | 55.81875 | -56.91300 | 35840 ft | 430 kts | 202° |
| 2026-04-19 08:17 | 55.75972 | -56.93118 | 35848 ft | 430 kts | 202° |
| 2026-04-19 08:18 | 55.70069 | -56.94923 | 35851 ft | 431 kts | 201° |
| 2026-04-19 08:18 | 55.64156 | -56.96713 | 35855 ft | 431 kts | 201° |
| 2026-04-19 08:19 | 55.58243 | -56.98506 | 35838 ft | 430 kts | 201° |
| 2026-04-19 08:19 | 55.52274 | -56.99994 | 35837 ft | 443 kts | 193° |
| 2026-04-19 08:20 | 55.46049 | -57.00034 | 35835 ft | 448 kts | 191° |
| 2026-04-19 08:20 | 55.39810 | -57.00011 | 35838 ft | 449 kts | 191° |
| 2026-04-19 08:21 | 55.33566 | -57.00000 | 35851 ft | 449 kts | 191° |
| 2026-04-19 08:21 | 55.27324 | -56.99996 | 35857 ft | 448 kts | 191° |
| 2026-04-19 08:22 | 55.21090 | -56.99997 | 35872 ft | 447 kts | 191° |
| 2026-04-19 08:22 | 55.14905 | -57.00011 | 35885 ft | 447 kts | 191° |
| 2026-04-19 08:23 | 55.08687 | -57.00010 | 35879 ft | 447 kts | 191° |
| 2026-04-19 08:23 | 55.02465 | -56.99991 | 35833 ft | 448 kts | 191° |
| 2026-04-19 08:24 | 54.96226 | -56.99995 | 35866 ft | 448 kts | 191° |
| 2026-04-19 08:24 | 54.89992 | -57.00013 | 35881 ft | 448 kts | 191° |
| 2026-04-19 08:25 | 54.83757 | -57.00012 | 35888 ft | 448 kts | 191° |
| 2026-04-19 08:25 | 54.77521 | -57.00003 | 35905 ft | 448 kts | 191° |
| 2026-04-19 08:26 | 54.71292 | -56.99994 | 35871 ft | 447 kts | 190° |
| 2026-04-19 08:26 | 54.65070 | -57.00003 | 35895 ft | 447 kts | 190° |
| 2026-04-19 08:27 | 54.58854 | -57.00007 | 35897 ft | 447 kts | 190° |
| 2026-04-19 08:27 | 54.52607 | -57.00005 | 35893 ft | 449 kts | 190° |
| 2026-04-19 08:28 | 54.46360 | -56.99989 | 35894 ft | 450 kts | 190° |
| 2026-04-19 08:28 | 54.40099 | -56.99988 | 35883 ft | 450 kts | 190° |
| 2026-04-19 08:29 | 54.33845 | -56.99990 | 35909 ft | 449 kts | 190° |
| 2026-04-19 08:29 | 54.27595 | -56.99997 | 35918 ft | 449 kts | 190° |
| 2026-04-19 08:30 | 54.21338 | -56.99998 | 35935 ft | 449 kts | 190° |
| 2026-04-19 08:30 | 54.15096 | -57.00008 | 35921 ft | 449 kts | 190° |
| 2026-04-19 08:31 | 54.08837 | -57.00011 | 35909 ft | 450 kts | 189° |
| 2026-04-19 08:31 | 54.02579 | -56.99640 | 35932 ft | 461 kts | 180° |
| 2026-04-19 08:32 | 53.96227 | -56.97382 | 35942 ft | 467 kts | 176° |
| 2026-04-19 08:32 | 53.89863 | -56.95022 | 35961 ft | 468 kts | 176° |
| 2026-04-19 08:33 | 53.83505 | -56.92698 | 35977 ft | 468 kts | 176° |
| 2026-04-19 08:33 | 53.77141 | -56.90372 | 35965 ft | 468 kts | 176° |
| 2026-04-19 08:34 | 53.70769 | -56.88060 | 35964 ft | 468 kts | 176° |
| 2026-04-19 08:34 | 53.64390 | -56.85751 | 35968 ft | 469 kts | 176° |
| 2026-04-19 08:35 | 53.57996 | -56.83445 | 35971 ft | 469 kts | 176° |
| 2026-04-19 08:35 | 53.51644 | -56.81160 | 35975 ft | 470 kts | 176° |
| 2026-04-19 08:36 | 53.45253 | -56.78842 | 35956 ft | 470 kts | 176° |
| 2026-04-19 08:36 | 53.38869 | -56.76549 | 35985 ft | 469 kts | 176° |
| 2026-04-19 08:37 | 53.32488 | -56.74279 | 36000 ft | 468 kts | 176° |
| 2026-04-19 08:37 | 53.26119 | -56.72006 | 36012 ft | 468 kts | 176° |
| 2026-04-19 08:38 | 53.19744 | -56.69740 | 36024 ft | 468 kts | 176° |
| 2026-04-19 08:38 | 53.13379 | -56.67482 | 36023 ft | 468 kts | 176° |
| 2026-04-19 08:39 | 53.07018 | -56.65232 | 36019 ft | 467 kts | 176° |
| 2026-04-19 08:39 | 53.00656 | -56.63010 | 36022 ft | 467 kts | 176° |
| 2026-04-19 08:40 | 52.94285 | -56.60784 | 36025 ft | 468 kts | 175° |
| 2026-04-19 08:40 | 52.87899 | -56.58530 | 36043 ft | 469 kts | 175° |
| 2026-04-19 08:41 | 52.81510 | -56.56294 | 36046 ft | 469 kts | 176° |
| 2026-04-19 08:41 | 52.75121 | -56.54078 | 36056 ft | 469 kts | 175° |
| 2026-04-19 08:42 | 52.68731 | -56.51866 | 36049 ft | 469 kts | 175° |
| 2026-04-19 08:42 | 52.62334 | -56.49639 | 36062 ft | 470 kts | 175° |
| 2026-04-19 08:43 | 52.55934 | -56.47425 | 36066 ft | 470 kts | 175° |
| 2026-04-19 08:43 | 52.49518 | -56.45221 | 36086 ft | 471 kts | 175° |
| 2026-04-19 08:44 | 52.43108 | -56.43029 | 36076 ft | 470 kts | 175° |
| 2026-04-19 08:44 | 52.36707 | -56.40846 | 36093 ft | 469 kts | 175° |
| 2026-04-19 08:45 | 52.30302 | -56.38661 | 36098 ft | 470 kts | 175° |
| 2026-04-19 08:45 | 52.23935 | -56.36498 | 36099 ft | 471 kts | 175° |
| 2026-04-19 08:46 | 52.17511 | -56.34321 | 36122 ft | 471 kts | 175° |
| 2026-04-19 08:46 | 52.11094 | -56.32153 | 36117 ft | 470 kts | 175° |
| 2026-04-19 08:47 | 52.04690 | -56.30000 | 36144 ft | 470 kts | 175° |
| 2026-04-19 08:47 | 51.98291 | -56.27862 | 36132 ft | 470 kts | 175° |
| 2026-04-19 08:48 | 51.91883 | -56.25709 | 36147 ft | 471 kts | 175° |
| 2026-04-19 08:48 | 51.85463 | -56.23558 | 36149 ft | 471 kts | 175° |
| 2026-04-19 08:49 | 51.79045 | -56.21421 | 36154 ft | 471 kts | 174° |
| 2026-04-19 08:49 | 51.72634 | -56.19293 | 36177 ft | 471 kts | 174° |
| 2026-04-19 08:50 | 51.66213 | -56.17176 | 36181 ft | 470 kts | 174° |
| 2026-04-19 08:50 | 51.59832 | -56.15072 | 36170 ft | 471 kts | 174° |
| 2026-04-19 08:51 | 51.53395 | -56.12952 | 36184 ft | 472 kts | 174° |
| 2026-04-19 08:51 | 51.46955 | -56.10844 | 36175 ft | 472 kts | 174° |
| 2026-04-19 08:52 | 51.40515 | -56.09632 | 36187 ft | 459 kts | 188° |
| 2026-04-19 08:52 | 51.34345 | -56.11248 | 36190 ft | 443 kts | 205° |
| 2026-04-19 08:53 | 51.28553 | -56.14491 | 36208 ft | 441 kts | 207° |
| 2026-04-19 08:53 | 51.22757 | -56.17745 | 36172 ft | 441 kts | 206° |
| 2026-04-19 08:54 | 51.16959 | -56.20989 | 36086 ft | 442 kts | 206° |
| 2026-04-19 08:54 | 51.14024 | -56.22635 | 35113 ft | 454 kts | 206° |
| 2026-04-19 08:54 | 51.11081 | -56.24286 | 34689 ft | 452 kts | 206° |
| 2026-04-19 08:55 | 51.08076 | -56.25962 | 34203 ft | 452 kts | 206° |
| 2026-04-19 08:55 | 51.05149 | -56.27593 | 33658 ft | 452 kts | 206° |
| 2026-04-19 08:55 | 51.02188 | -56.29236 | 33159 ft | 450 kts | 206° |
| 2026-04-19 08:55 | 50.99233 | -56.30876 | 32635 ft | 449 kts | 205° |
| 2026-04-19 08:56 | 50.96282 | -56.32514 | 32115 ft | 448 kts | 205° |
| 2026-04-19 08:56 | 50.93356 | -56.34134 | 31729 ft | 444 kts | 205° |
| 2026-04-19 08:56 | 50.90430 | -56.35758 | 31287 ft | 442 kts | 205° |
| 2026-04-19 08:56 | 50.87545 | -56.37359 | 30943 ft | 437 kts | 205° |
| 2026-04-19 08:57 | 50.84684 | -56.38942 | 30551 ft | 434 kts | 205° |
| 2026-04-19 08:57 | 50.81846 | -56.40505 | 30147 ft | 431 kts | 205° |
| 2026-04-19 08:57 | 50.79020 | -56.42056 | 29685 ft | 428 kts | 205° |
| 2026-04-19 08:57 | 50.76215 | -56.43595 | 29232 ft | 425 kts | 204° |
| 2026-04-19 08:58 | 50.73435 | -56.45117 | 28832 ft | 420 kts | 204° |
| 2026-04-19 08:58 | 50.71612 | -56.46114 | 28529 ft | 418 kts | 204° |
| 2026-04-19 08:58 | 50.68870 | -56.47616 | 28074 ft | 415 kts | 204° |
| 2026-04-19 08:58 | 50.66148 | -56.49108 | 27631 ft | 412 kts | 204° |
| 2026-04-19 08:59 | 50.63449 | -56.50585 | 27194 ft | 409 kts | 205° |
| 2026-04-19 08:59 | 50.60774 | -56.52051 | 26767 ft | 406 kts | 205° |
| 2026-04-19 08:59 | 50.58108 | -56.53511 | 26363 ft | 404 kts | 205° |
| 2026-04-19 08:59 | 50.55460 | -56.54959 | 25922 ft | 403 kts | 204° |
| 2026-04-19 09:00 | 50.52820 | -56.56397 | 25533 ft | 400 kts | 204° |
| 2026-04-19 09:00 | 50.50202 | -56.57816 | 25204 ft | 396 kts | 204° |
| 2026-04-19 09:00 | 50.47603 | -56.59223 | 24862 ft | 394 kts | 204° |
| 2026-04-19 09:00 | 50.45023 | -56.60620 | 24530 ft | 391 kts | 204° |
| 2026-04-19 09:01 | 50.42458 | -56.62011 | 24205 ft | 388 kts | 204° |
| 2026-04-19 09:01 | 50.39911 | -56.63392 | 23902 ft | 386 kts | 204° |
| 2026-04-19 09:01 | 50.37384 | -56.64762 | 23544 ft | 383 kts | 204° |
| 2026-04-19 09:01 | 50.34872 | -56.66119 | 23182 ft | 381 kts | 204° |
| 2026-04-19 09:02 | 50.32371 | -56.67466 | 22803 ft | 378 kts | 204° |
| 2026-04-19 09:02 | 50.29890 | -56.68800 | 22400 ft | 376 kts | 204° |
| 2026-04-19 09:02 | 50.27425 | -56.70125 | 22019 ft | 373 kts | 204° |
| 2026-04-19 09:02 | 50.25009 | -56.71422 | 21642 ft | 371 kts | 204° |
| 2026-04-19 09:03 | 50.22520 | -56.72760 | 20806 ft | 379 kts | 204° |
| 2026-04-19 09:03 | 50.19986 | -56.74130 | 19799 ft | 393 kts | 204° |
| 2026-04-19 09:03 | 50.17396 | -56.75532 | 18737 ft | 405 kts | 204° |
| 2026-04-19 09:03 | 50.14670 | -56.77002 | 17562 ft | 413 kts | 204° |
| 2026-04-19 09:04 | 50.11975 | -56.78439 | 16698 ft | 412 kts | 204° |
| 2026-04-19 09:04 | 50.09270 | -56.79871 | 15955 ft | 409 kts | 203° |
| 2026-04-19 09:04 | 50.06585 | -56.81290 | 15253 ft | 404 kts | 203° |
| 2026-04-19 09:04 | 50.03948 | -56.82683 | 14331 ft | 397 kts | 203° |
| 2026-04-19 09:05 | 50.01347 | -56.84062 | 13354 ft | 392 kts | 202° |
| 2026-04-19 09:05 | 49.98786 | -56.85422 | 12401 ft | 386 kts | 202° |
| 2026-04-19 09:05 | 49.96270 | -56.86759 | 11456 ft | 379 kts | 202° |
| 2026-04-19 09:05 | 49.93797 | -56.88074 | 10527 ft | 372 kts | 202° |
| 2026-04-19 09:06 | 49.91367 | -56.89361 | 9533 ft | 365 kts | 202° |
| 2026-04-19 09:06 | 49.88983 | -56.90623 | 8486 ft | 359 kts | 202° |
| 2026-04-19 09:06 | 49.86638 | -56.91863 | 7406 ft | 355 kts | 202° |
| 2026-04-19 09:06 | 49.84316 | -56.93087 | 6405 ft | 349 kts | 201° |
| 2026-04-19 09:07 | 49.82040 | -56.94284 | 5397 ft | 343 kts | 201° |
| 2026-04-19 09:07 | 49.79805 | -56.95459 | 4395 ft | 335 kts | 201° |
| 2026-04-19 09:07 | 49.77622 | -56.96608 | 3585 ft | 326 kts | 202° |
| 2026-04-19 09:07 | 49.75546 | -56.97696 | 3318 ft | 303 kts | 202° |
| 2026-04-19 09:08 | 49.73598 | -56.98715 | 3185 ft | 287 kts | 202° |
| 2026-04-19 09:08 | 49.71771 | -56.99670 | 3195 ft | 267 kts | 202° |
| 2026-04-19 09:08 | 49.70072 | -57.00559 | 3200 ft | 250 kts | 203° |
| 2026-04-19 09:08 | 49.68473 | -57.01400 | 3203 ft | 236 kts | 203° |
| 2026-04-19 09:09 | 49.66935 | -57.02213 | 3211 ft | 233 kts | 203° |
| 2026-04-19 09:09 | 49.65399 | -57.03028 | 3209 ft | 233 kts | 203° |
| 2026-04-19 09:09 | 49.63866 | -57.03840 | 3209 ft | 233 kts | 203° |
| 2026-04-19 09:09 | 49.62333 | -57.04646 | 3202 ft | 232 kts | 202° |
| 2026-04-19 09:10 | 49.60802 | -57.05450 | 3208 ft | 232 kts | 202° |
| 2026-04-19 09:10 | 49.59273 | -57.06248 | 3212 ft | 232 kts | 202° |
| 2026-04-19 09:10 | 49.57742 | -57.07046 | 3208 ft | 233 kts | 202° |
| 2026-04-19 09:10 | 49.56205 | -57.07849 | 3207 ft | 232 kts | 202° |
| 2026-04-19 09:11 | 49.54672 | -57.08645 | 3211 ft | 232 kts | 202° |
| 2026-04-19 09:11 | 49.53139 | -57.09441 | 3210 ft | 232 kts | 202° |
| 2026-04-19 09:11 | 49.51614 | -57.10232 | 3212 ft | 232 kts | 202° |
| 2026-04-19 09:11 | 49.50079 | -57.11030 | 3209 ft | 232 kts | 202° |
| 2026-04-19 09:12 | 49.48551 | -57.11826 | 3211 ft | 232 kts | 202° |
| 2026-04-19 09:12 | 49.47024 | -57.12621 | 3123 ft | 231 kts | 202° |
| 2026-04-19 09:12 | 49.45503 | -57.13411 | 2991 ft | 230 kts | 202° |
| 2026-04-19 09:12 | 49.44001 | -57.14188 | 2863 ft | 224 kts | 202° |
| 2026-04-19 09:13 | 49.42557 | -57.14931 | 2730 ft | 214 kts | 202° |
| 2026-04-19 09:13 | 49.41173 | -57.15647 | 2595 ft | 205 kts | 202° |
| 2026-04-19 09:13 | 49.39871 | -57.16318 | 2468 ft | 196 kts | 200° |
| 2026-04-19 09:13 | 49.38609 | -57.16969 | 2336 ft | 187 kts | 200° |
| 2026-04-19 09:14 | 49.37408 | -57.17591 | 2227 ft | 176 kts | 200° |
| 2026-04-19 09:14 | 49.36269 | -57.18181 | 2113 ft | 171 kts | 200° |
| 2026-04-19 09:14 | 49.35150 | -57.18760 | 2026 ft | 168 kts | 200° |
| 2026-04-19 09:14 | 49.34096 | -57.19305 | 2018 ft | 151 kts | 200° |
| 2026-04-19 09:15 | 49.33191 | -57.19915 | 2004 ft | 135 kts | 213° |
| 2026-04-19 09:15 | 49.32503 | -57.20839 | 2000 ft | 129 kts | 225° |
| 2026-04-19 09:15 | 49.31296 | -57.22789 | 2022 ft | 124 kts | 224° |
| 2026-04-19 09:16 | 49.30712 | -57.23726 | 1759 ft | 120 kts | 224° |
| 2026-04-19 09:16 | 49.30126 | -57.24667 | 1332 ft | 122 kts | 225° |
| 2026-04-19 09:16 | 49.29542 | -57.25605 | 1303 ft | 124 kts | 225° |
| 2026-04-19 09:16 | 49.28939 | -57.26574 | 1311 ft | 125 kts | 225° |
| 2026-04-19 09:17 | 49.28344 | -57.27530 | 1314 ft | 125 kts | 225° |
| 2026-04-19 09:17 | 49.27733 | -57.28511 | 1314 ft | 125 kts | 225° |
| 2026-04-19 09:17 | 49.27131 | -57.29478 | 1327 ft | 125 kts | 225° |
| 2026-04-19 09:17 | 49.26530 | -57.30442 | 1299 ft | 126 kts | 225° |
| 2026-04-19 09:18 | 49.25923 | -57.31416 | 1207 ft | 127 kts | 225° |
| 2026-04-19 09:18 | 49.25319 | -57.32385 | 1066 ft | 128 kts | 225° |
| 2026-04-19 09:18 | 49.24699 | -57.33379 | 910 ft | 130 kts | 225° |
| 2026-04-19 09:18 | 49.24072 | -57.34383 | 746 ft | 131 kts | 225° |
| 2026-04-19 09:19 | 49.23439 | -57.35398 | 584 ft | 132 kts | 225° |
| 2026-04-19 09:19 | 49.22801 | -57.36419 | 413 ft | 133 kts | 225° |
| 2026-04-19 09:19 | 49.22158 | -57.37447 | 255 ft | 133 kts | 226° |
| 2026-04-19 09:19 | 49.21519 | -57.38463 | 67 ft | 131 kts | 226° |
| 2026-04-19 09:20 | 49.21101 | -57.39142 | 52 ft | 31 kts | 226° |
| 2026-04-19 09:20 | 49.20968 | -57.39342 | 48 ft | 32 kts | 225° |
| 2026-04-19 09:20 | 49.20841 | -57.39546 | 54 ft | 12 kts | 230° |
| 2026-04-19 09:20 | 49.20757 | -57.39699 | 51 ft | 25 kts | 244° |
| 2026-04-19 09:21 | 49.20805 | -57.39816 | 55 ft | 17 kts | 315° |
| 2026-04-19 09:21 | 49.20909 | -57.39811 | 54 ft | 17 kts | 59° |
| 2026-04-19 09:21 | 49.20974 | -57.39795 | 54 ft | 12 kts | 334° |
| 2026-04-19 09:21 | 49.20987 | -57.39799 | 54 ft | 0 kts | 353° |